Time;durP1;ratioP1;P1;durP2;ratioP2;P2;SDS_P1;SDS_P2;PMS_P1;PMS_P2;Temp;Humidity;BMP_temperature;BMP_pressure;BME280_temperature;BME280_humidity;BME280_pressure;Samples;Min_cycle;Max_cycle;Signal;HPM_P1;HPM_P2
2023/07/19 00:00:37;;;;;;;;;;;;;;;34.97;36.89;101278.09;5101335;28;19916;-52
2023/07/19 00:03:03;;;;;;;;;;;;;;;34.93;37.44;101275.22;5077451;28;20015;-51
2023/07/19 00:05:29;;;;;;;;;;;;;;;34.80;36.88;101276.41;5094579;28;19931;-50
2023/07/19 00:07:55;;;;;;;;;;;;;;;34.75;37.49;101277.47;5094828;28;19952;-47
2023/07/19 00:10:20;;;;;;;;;;;;;;;34.44;37.18;101271.38;5097294;28;19927;-50
2023/07/19 00:12:46;;;;;;;;;;;;;;;34.62;37.01;101265.59;5094487;28;19916;-53
2023/07/19 00:15:12;;;;;;;;;;;;;;;34.63;36.70;101271.94;5094234;28;19955;-53
2023/07/19 00:17:37;;;;;;;;;;;;;;;33.50;38.96;101265.53;5094647;28;19920;-51
2023/07/19 00:20:03;;;;;;;;;;;;;;;32.93;39.46;101259.53;5094396;28;19917;-53
2023/07/19 00:22:29;;;;;;;;;;;;;;;32.80;39.73;101257.81;5081169;28;19920;-55
2023/07/19 00:24:54;;;;;;;;;;;;;;;32.98;39.76;101253.75;5094541;28;19920;-54
2023/07/19 00:27:20;;;;;;;;;;;;;;;32.88;40.64;101254.19;5094123;28;19916;-53
2023/07/19 00:29:45;;;;;;;;;;;;;;;32.81;40.31;101243.63;5103928;28;19917;-53
2023/07/19 00:32:11;;;;;;;;;;;;;;;32.80;40.91;101247.53;5097319;28;19916;-55
2023/07/19 00:34:38;;;;;;;;;;;;;;;33.45;39.64;101244.38;5084999;28;19917;-54
2023/07/19 00:37:03;;;;;;;;;;;;;;;34.28;37.68;101245.50;5094427;28;19927;-52
2023/07/19 00:39:29;;;;;;;;;;;;;;;34.18;38.60;101247.59;5067214;28;19938;-54
2023/07/19 00:41:55;;;;;;;;;;;;;;;34.36;38.16;101240.97;5095132;28;19920;-53
2023/07/19 00:44:21;;;;;;;;;;;;;;;34.24;37.37;101241.78;5104862;28;20398;-56
2023/07/19 00:46:47;;;;;;;;;;;;;;;34.31;37.75;101240.06;5114262;28;19923;-51
2023/07/19 00:49:13;;;;;;;;;;;;;;;34.20;38.22;101240.88;5113930;28;19927;-52
2023/07/19 00:51:39;;;;;;;;;;;;;;;34.21;38.21;101232.19;5080588;28;19913;-55
2023/07/19 00:54:05;;;;;;;;;;;;;;;34.16;38.52;101238.00;5117692;28;19927;-54
2023/07/19 00:56:32;;;;;;;;;;;;;;;34.25;38.76;101235.09;5102273;28;19916;-52
2023/07/19 00:58:57;;;;;;;;;;;;;;;34.14;39.55;101230.03;5098659;28;19916;-54
2023/07/19 01:01:23;;;;;;;;;;;;;;;34.06;39.80;101227.38;5080570;28;19923;-53
2023/07/19 01:03:49;;;;;;;;;;;;;;;33.99;39.87;101230.72;5098169;28;19916;-53
2023/07/19 01:06:15;;;;;;;;;;;;;;;33.80;40.33;101228.50;5114034;28;19927;-54
2023/07/19 01:08:40;;;;;;;;;;;;;;;33.66;40.38;101229.63;5097925;28;19921;-54
2023/07/19 01:11:05;;;;;;;;;;;;;;;33.41;40.18;101225.97;5098136;28;19917;-55
2023/07/19 01:13:31;;;;;;;;;;;;;;;33.55;40.20;101232.03;5097724;28;19917;-49
2023/07/19 01:15:56;;;;;;;;;;;;;;;33.53;40.20;101222.44;5097637;28;19958;-49
2023/07/19 01:18:22;;;;;;;;;;;;;;;33.57;40.51;101232.50;5113867;28;19916;-55
2023/07/19 01:20:48;;;;;;;;;;;;;;;33.41;40.95;101225.97;5121986;28;19923;-55
2023/07/19 01:23:13;;;;;;;;;;;;;;;33.49;40.54;101229.84;5105019;28;19923;-54
2023/07/19 01:25:39;;;;;;;;;;;;;;;33.42;40.43;101214.59;5098088;28;19979;-51
2023/07/19 01:28:05;;;;;;;;;;;;;;;33.33;41.30;101214.66;5097761;28;19921;-49
2023/07/19 01:30:31;;;;;;;;;;;;;;;33.27;40.59;101213.25;5084586;28;19919;-51
2023/07/19 01:32:56;;;;;;;;;;;;;;;33.27;41.47;101220.75;5079798;28;19921;-52
2023/07/19 01:35:22;;;;;;;;;;;;;;;33.29;40.85;101210.94;5113034;28;19921;-55
2023/07/19 01:37:48;;;;;;;;;;;;;;;33.27;40.83;101218.81;5097560;28;19943;-54
2023/07/19 01:40:15;;;;;;;;;;;;;;;33.20;40.92;101215.75;5097107;28;19916;-54
2023/07/19 01:42:40;;;;;;;;;;;;;;;33.15;40.86;101207.66;5098287;28;19920;-52
2023/07/19 01:45:06;;;;;;;;;;;;;;;33.16;41.11;101220.38;5097411;28;19923;-53
2023/07/19 01:47:31;;;;;;;;;;;;;;;33.10;40.58;101219.78;5079493;28;19956;-51
2023/07/19 01:49:57;;;;;;;;;;;;;;;33.07;40.84;101214.13;5102000;28;19937;-50
2023/07/19 01:52:23;;;;;;;;;;;;;;;33.01;41.05;101219.88;5086061;28;19934;-50
2023/07/19 01:54:48;;;;;;;;;;;;;;;33.16;40.19;101220.38;5096493;28;19920;-53
2023/07/19 01:57:14;;;;;;;;;;;;;;;33.24;41.07;101207.59;5082203;28;19916;-51
2023/07/19 01:59:40;;;;;;;;;;;;;;;33.26;40.05;101203.31;5113033;28;19923;-52
2023/07/19 02:02:05;;;;;;;;;;;;;;;33.21;40.72;101211.84;5079488;28;19916;-54
2023/07/19 02:04:31;;;;;;;;;;;;;;;33.22;40.97;101207.94;5079206;28;20456;-53
2023/07/19 02:06:57;;;;;;;;;;;;;;;33.09;40.04;101209.03;5079399;28;19924;-54
2023/07/19 02:09:22;;;;;;;;;;;;;;;33.12;40.70;101198.09;5096519;28;19970;-55
2023/07/19 02:11:48;;;;;;;;;;;;;;;33.07;40.18;101195.53;5101626;28;19939;-53
2023/07/19 02:14:15;;;;;;;;;;;;;;;32.94;40.00;101200.22;5112577;28;19948;-51
2023/07/19 02:16:41;;;;;;;;;;;;;;;33.07;40.23;101195.53;5112751;28;19927;-51
2023/07/19 02:19:07;;;;;;;;;;;;;;;32.92;39.96;101188.66;5096809;28;19976;-51
2023/07/19 02:21:32;;;;;;;;;;;;;;;32.77;40.62;101186.53;5096511;28;19916;-49
2023/07/19 02:23:58;;;;;;;;;;;;;;;32.81;40.64;101193.00;5096348;28;19927;-49
2023/07/19 02:26:24;;;;;;;;;;;;;;;32.91;40.34;101198.13;5112430;28;19916;-49
2023/07/19 02:28:50;;;;;;;;;;;;;;;32.69;41.72;101194.53;5096244;28;19960;-48
2023/07/19 02:31:15;;;;;;;;;;;;;;;32.74;40.94;101194.31;5124732;28;19924;-53
2023/07/19 02:33:41;;;;;;;;;;;;;;;33.03;40.39;101191.81;5102016;28;19923;-53
2023/07/19 02:36:06;;;;;;;;;;;;;;;32.94;40.72;101186.38;5103939;28;20042;-47
2023/07/19 02:38:32;;;;;;;;;;;;;;;32.72;40.90;101191.09;5078462;28;19916;-51
2023/07/19 02:40:59;;;;;;;;;;;;;;;32.72;41.16;101193.84;5087365;28;19916;-52
2023/07/19 02:43:24;;;;;;;;;;;;;;;32.80;41.02;101197.69;5112787;28;19916;-53
2023/07/19 02:45:51;;;;;;;;;;;;;;;32.86;41.21;101201.09;5112425;28;19951;-51
2023/07/19 02:48:17;;;;;;;;;;;;;;;32.78;40.77;101204.75;5095701;28;19920;-50
2023/07/19 02:50:46;;;;;;;;;;;;;;;32.48;41.86;101202.88;5118025;28;19943;-47
2023/07/19 02:53:12;;;;;;;;;;;;;;;32.83;41.54;101202.56;5112025;28;19916;-50
2023/07/19 02:55:38;;;;;;;;;;;;;;;32.72;40.70;101202.16;5112143;28;19912;-48
2023/07/19 02:58:03;;;;;;;;;;;;;;;32.73;40.92;101203.78;5095828;28;19917;-53
2023/07/19 03:00:29;;;;;;;;;;;;;;;32.56;42.08;101192.88;5098810;28;19916;-52
2023/07/19 03:02:55;;;;;;;;;;;;;;;33.04;40.78;101193.44;5096019;28;19916;-54
2023/07/19 03:05:22;;;;;;;;;;;;;;;33.38;39.63;101194.22;5110787;28;19920;-52
2023/07/19 03:07:47;;;;;;;;;;;;;;;32.90;40.75;101202.03;5095735;28;19921;-48
2023/07/19 03:10:13;;;;;;;;;;;;;;;32.78;41.19;101199.22;5095704;28;19962;-51
2023/07/19 03:12:38;;;;;;;;;;;;;;;32.48;42.42;101191.78;5095502;28;19994;-54
2023/07/19 03:15:05;;;;;;;;;;;;;;;31.86;43.04;101191.31;5078454;28;19999;-50
2023/07/19 03:17:30;;;;;;;;;;;;;;;32.26;42.74;101187.34;5095411;28;19916;-53
2023/07/19 03:19:56;;;;;;;;;;;;;;;32.13;43.09;101192.81;5095391;28;19916;-52
2023/07/19 03:22:21;;;;;;;;;;;;;;;32.81;41.90;101193.00;5095042;28;19936;-50
2023/07/19 03:24:47;;;;;;;;;;;;;;;33.19;40.38;101191.97;5104515;28;19923;-50
2023/07/19 03:27:13;;;;;;;;;;;;;;;33.28;40.31;101198.25;5095773;28;19938;-55
2023/07/19 03:29:38;;;;;;;;;;;;;;;33.19;40.54;101200.28;5110908;28;20024;-53
2023/07/19 03:32:06;;;;;;;;;;;;;;;33.38;41.19;101204.50;5111227;28;19916;-53
2023/07/19 03:34:32;;;;;;;;;;;;;;;32.97;41.45;101202.28;5075973;28;19917;-52
2023/07/19 03:36:58;;;;;;;;;;;;;;;33.07;40.68;101197.50;5090941;28;19920;-56
2023/07/19 03:39:24;;;;;;;;;;;;;;;32.82;41.27;101191.84;5112769;28;19948;-54
2023/07/19 03:41:49;;;;;;;;;;;;;;;33.07;40.81;101191.97;5094814;28;19916;-52
2023/07/19 03:44:15;;;;;;;;;;;;;;;31.95;42.37;101192.13;5077031;28;19947;-55
2023/07/19 03:46:40;;;;;;;;;;;;;;;32.46;42.11;101194.88;5094772;28;19916;-51
2023/07/19 03:49:06;;;;;;;;;;;;;;;32.74;41.43;101190.75;5112776;28;19928;-53
2023/07/19 03:51:31;;;;;;;;;;;;;;;32.95;41.48;101198.25;5078857;28;19916;-53
2023/07/19 03:53:58;;;;;;;;;;;;;;;32.30;42.29;101191.09;5110776;28;19978;-53
2023/07/19 03:56:23;;;;;;;;;;;;;;;32.73;42.03;101189.16;5110804;28;19975;-53
2023/07/19 03:58:49;;;;;;;;;;;;;;;32.96;41.17;101175.75;5110798;28;19917;-51
2023/07/19 04:01:16;;;;;;;;;;;;;;;32.88;41.79;101188.56;5110953;28;19920;-51
2023/07/19 04:03:42;;;;;;;;;;;;;;;32.96;42.10;101186.81;5076767;28;19920;-50
2023/07/19 04:06:07;;;;;;;;;;;;;;;32.96;41.37;101184.06;5094193;28;19916;-52
2023/07/19 04:08:34;;;;;;;;;;;;;;;33.26;40.84;101196.97;5094144;28;19951;-53
2023/07/19 04:10:59;;;;;;;;;;;;;;;33.22;40.56;101191.31;5078678;28;19913;-55
2023/07/19 04:13:26;;;;;;;;;;;;;;;33.24;40.28;101194.56;5093736;28;19935;-53
2023/07/19 04:15:52;;;;;;;;;;;;;;;33.26;40.40;101195.00;5098925;28;19943;-51
2023/07/19 04:18:17;;;;;;;;;;;;;;;33.25;41.52;101192.56;5109910;28;19920;-52
2023/07/19 04:20:42;;;;;;;;;;;;;;;33.36;40.49;101190.16;5076591;28;19955;-50
2023/07/19 04:23:08;;;;;;;;;;;;;;;33.39;40.10;101195.84;5110470;28;20302;-49
2023/07/19 04:25:34;;;;;;;;;;;;;;;33.33;40.17;101195.25;5116091;28;19955;-54
2023/07/19 04:28:00;;;;;;;;;;;;;;;33.30;41.07;101198.72;5076834;28;19991;-53
2023/07/19 04:30:26;;;;;;;;;;;;;;;33.06;40.97;101187.56;5110464;28;19931;-51
2023/07/19 04:32:55;;;;;;;;;;;;;;;33.26;41.73;101194.19;5076950;28;19920;-52
2023/07/19 04:35:22;;;;;;;;;;;;;;;33.35;40.75;101200.47;5110144;28;19963;-49
2023/07/19 04:37:49;;;;;;;;;;;;;;;33.26;40.95;101203.31;5094414;28;19948;-50
2023/07/19 04:40:16;;;;;;;;;;;;;;;32.72;41.36;101201.38;5093373;28;20158;-48
2023/07/19 04:42:42;;;;;;;;;;;;;;;32.86;42.29;101196.34;5091546;28;19917;-49
2023/07/19 04:45:09;;;;;;;;;;;;;;;32.94;42.09;101204.97;5092726;28;19923;-47
2023/07/19 04:47:38;;;;;;;;;;;;;;;33.18;41.17;101201.44;5104470;28;19927;-50
2023/07/19 04:50:06;;;;;;;;;;;;;;;32.91;42.09;101209.19;5076557;28;19924;-52
2023/07/19 04:52:31;;;;;;;;;;;;;;;33.21;41.81;101203.53;5076634;28;19927;-51
2023/07/19 04:54:58;;;;;;;;;;;;;;;33.42;41.27;101208.19;5085345;28;20524;-50
2023/07/19 04:57:24;;;;;;;;;;;;;;;33.64;40.87;101211.72;5094446;28;19916;-53
2023/07/19 04:59:50;;;;;;;;;;;;;;;33.49;40.27;101204.88;5076789;28;19943;-49
2023/07/19 05:02:16;;;;;;;;;;;;;;;33.28;40.42;101206.56;5080386;28;19917;-54
2023/07/19 05:04:41;;;;;;;;;;;;;;;33.39;40.55;101211.66;5081912;28;19923;-51
2023/07/19 05:07:06;;;;;;;;;;;;;;;32.82;40.99;101212.00;5094068;28;19955;-53
2023/07/19 05:09:33;;;;;;;;;;;;;;;33.44;40.55;101212.28;5076485;28;20315;-50
2023/07/19 05:11:59;;;;;;;;;;;;;;;33.27;40.43;101204.94;5076470;28;19913;-49
2023/07/19 05:14:26;;;;;;;;;;;;;;;33.42;40.39;101200.72;5076161;28;19917;-51
2023/07/19 05:16:51;;;;;;;;;;;;;;;33.26;39.92;101203.31;5093940;28;19916;-52
2023/07/19 05:19:16;;;;;;;;;;;;;;;33.21;39.96;101209.06;5109941;28;19916;-49
2023/07/19 05:21:43;;;;;;;;;;;;;;;33.24;39.89;101202.88;5076495;28;19917;-49
2023/07/19 05:24:09;;;;;;;;;;;;;;;33.22;40.28;101209.88;5076268;28;20059;-50
2023/07/19 05:26:34;;;;;;;;;;;;;;;32.84;41.50;101209.72;5110028;28;19917;-49
2023/07/19 05:29:00;;;;;;;;;;;;;;;33.14;40.72;101208.81;5094853;28;19928;-47
2023/07/19 05:31:25;;;;;;;;;;;;;;;32.88;41.57;101207.94;5085647;28;19924;-50
2023/07/19 05:33:51;;;;;;;;;;;;;;;32.83;42.19;101207.31;5103319;28;19951;-51
2023/07/19 05:36:16;;;;;;;;;;;;;;;33.51;40.41;101202.56;5087294;28;19916;-50
2023/07/19 05:38:42;;;;;;;;;;;;;;;33.87;40.51;101199.00;5097409;28;19938;-49
2023/07/19 05:41:08;;;;;;;;;;;;;;;34.01;40.34;101209.78;5096857;28;19917;-53
2023/07/19 05:43:33;;;;;;;;;;;;;;;33.77;40.39;101213.34;5097830;28;19936;-49
2023/07/19 05:46:02;;;;;;;;;;;;;;;33.58;40.75;101206.41;5109039;28;19916;-49
2023/07/19 05:48:28;;;;;;;;;;;;;;;33.40;40.38;101211.31;5097112;28;19932;-52
2023/07/19 05:50:53;;;;;;;;;;;;;;;32.57;41.31;101205.56;5097103;28;19917;-51
2023/07/19 05:53:19;;;;;;;;;;;;;;;32.99;41.02;101208.34;5096789;28;19923;-51
2023/07/19 05:55:44;;;;;;;;;;;;;;;32.91;41.61;101209.19;5098636;28;19920;-55
2023/07/19 05:58:10;;;;;;;;;;;;;;;32.32;42.53;101206.22;5096993;28;19955;-52
2023/07/19 06:00:35;;;;;;;;;;;;;;;32.86;41.69;101212.16;5093210;28;19927;-53
2023/07/19 06:03:01;;;;;;;;;;;;;;;33.58;40.73;101211.94;5097058;28;19916;-52
2023/07/19 06:05:26;;;;;;;;;;;;;;;32.37;42.46;101218.22;5096076;28;19928;-55
2023/07/19 06:07:52;;;;;;;;;;;;;;;32.03;43.70;101213.38;5111435;28;19926;-48
2023/07/19 06:10:18;;;;;;;;;;;;;;;31.41;45.11;101201.72;5094826;28;19916;-51
2023/07/19 06:12:43;;;;;;;;;;;;;;;31.64;45.89;101206.22;5096882;28;19916;-51
2023/07/19 06:15:09;;;;;;;;;;;;;;;31.72;46.30;101202.59;5096149;28;19924;-49
2023/07/19 06:17:35;;;;;;;;;;;;;;;31.42;46.53;101197.81;5108301;28;19928;-51
2023/07/19 06:20:01;;;;;;;;;;;;;;;31.72;47.06;101197.88;5096608;28;19934;-53
2023/07/19 06:22:26;;;;;;;;;;;;;;;33.85;42.53;101195.78;5096241;28;19951;-51
2023/07/19 06:24:52;;;;;;;;;;;;;;;33.92;41.91;101197.19;5104913;28;19916;-52
2023/07/19 06:27:17;;;;;;;;;;;;;;;34.42;40.62;101201.53;5100676;28;19924;-51
2023/07/19 06:29:43;;;;;;;;;;;;;;;34.42;40.61;101209.03;5096730;28;19976;-52
2023/07/19 06:32:10;;;;;;;;;;;;;;;34.77;39.97;101205.72;5096088;28;19916;-49
2023/07/19 06:34:36;;;;;;;;;;;;;;;34.74;39.48;101203.66;5101622;28;19927;-52
2023/07/19 06:37:01;;;;;;;;;;;;;;;34.68;39.39;101205.88;5099593;28;19917;-53
2023/07/19 06:39:28;;;;;;;;;;;;;;;35.10;38.77;101206.63;5088726;28;19988;-53
2023/07/19 06:41:54;;;;;;;;;;;;;;;35.15;38.81;101206.38;5086665;28;19938;-50
2023/07/19 06:44:19;;;;;;;;;;;;;;;34.86;38.92;101208.34;5079060;28;19946;-52
2023/07/19 06:46:45;;;;;;;;;;;;;;;34.80;39.46;101206.97;5092888;28;19946;-54
2023/07/19 06:49:10;;;;;;;;;;;;;;;34.17;40.05;101204.34;5103323;28;20004;-53
2023/07/19 06:51:36;;;;;;;;;;;;;;;33.49;42.08;101205.72;5090074;28;19916;-53
2023/07/19 06:54:01;;;;;;;;;;;;;;;33.50;41.72;101198.19;5078782;28;19916;-51
2023/07/19 06:56:27;;;;;;;;;;;;;;;33.92;40.67;101208.28;5089895;28;19912;-49
2023/07/19 06:58:52;;;;;;;;;;;;;;;33.87;41.08;101207.34;5096201;28;19944;-48
2023/07/19 07:01:18;;;;;;;;;;;;;;;34.63;39.61;101208.91;5085247;28;19959;-53
2023/07/19 07:03:43;;;;;;;;;;;;;;;33.99;40.98;101205.75;5096101;28;19942;-51
2023/07/19 07:06:09;;;;;;;;;;;;;;;33.75;41.91;101205.38;5089245;28;19920;-51
2023/07/19 07:08:34;;;;;;;;;;;;;;;33.92;41.72;101205.50;5096128;28;19978;-52
2023/07/19 07:11:01;;;;;;;;;;;;;;;33.75;42.14;101199.81;5094731;28;19939;-52
2023/07/19 07:13:26;;;;;;;;;;;;;;;32.91;43.54;101209.19;5090551;28;19946;-51
2023/07/19 07:15:52;;;;;;;;;;;;;;;32.70;44.86;101204.47;5095736;28;19975;-52
2023/07/19 07:18:17;;;;;;;;;;;;;;;32.83;43.83;101199.00;5101821;28;19976;-51
2023/07/19 07:20:43;;;;;;;;;;;;;;;34.46;41.40;101201.59;5072469;28;19917;-51
2023/07/19 07:23:08;;;;;;;;;;;;;;;34.30;41.06;101207.09;5075738;28;19916;-54
2023/07/19 07:25:35;;;;;;;;;;;;;;;33.21;42.64;101209.06;5094254;28;19939;-48
2023/07/19 07:28:00;;;;;;;;;;;;;;;33.23;43.46;101200.41;5098753;28;19921;-51
2023/07/19 07:30:26;;;;;;;;;;;;;;;34.36;41.61;101207.66;5095106;28;19955;-49
2023/07/19 07:32:52;;;;;;;;;;;;;;;34.63;41.01;101208.91;5088468;28;19924;-50
2023/07/19 07:35:17;;;;;;;;;;;;;;;34.82;40.35;101205.47;5092289;28;19916;-51
2023/07/19 07:37:43;;;;;;;;;;;;;;;35.33;39.70;101215.19;5073443;28;19939;-49
2023/07/19 07:40:10;;;;;;;;;;;;;;;32.63;43.61;101211.69;5093932;28;19916;-54
2023/07/19 07:42:37;;;;;;;;;;;;;;;32.26;46.51;101204.78;5088122;28;19995;-48
2023/07/19 07:45:03;;;;;;;;;;;;;;;32.99;44.20;101197.25;5097406;28;19923;-55
2023/07/19 07:47:28;;;;;;;;;;;;;;;33.65;44.09;101199.47;5077383;28;19916;-51
2023/07/19 07:49:55;;;;;;;;;;;;;;;32.59;44.33;101200.50;5097023;28;19916;-49
2023/07/19 07:52:21;;;;;;;;;;;;;;;31.50;48.18;101203.66;5093751;28;19920;-49
2023/07/19 07:54:48;;;;;;;;;;;;;;;32.01;46.64;101201.84;5077683;28;19917;-50
2023/07/19 07:57:14;;;;;;;;;;;;;;;33.76;42.55;101200.66;5090808;28;19921;-49
2023/07/19 07:59:40;;;;;;;;;;;;;;;34.96;40.34;101207.81;5095127;28;19916;-53
2023/07/19 08:02:06;;;;;;;;;;;;;;;34.18;42.16;101202.38;5090971;28;19939;-49
2023/07/19 08:04:32;;;;;;;;;;;;;;;33.95;40.79;101200.06;5094985;28;19972;-50
2023/07/19 08:06:58;;;;;;;;;;;;;;;33.73;41.47;101198.56;5100767;28;19920;-51
2023/07/19 08:09:23;;;;;;;;;;;;;;;34.00;41.44;101191.53;5096436;28;19983;-50
2023/07/19 08:11:49;;;;;;;;;;;;;;;33.79;41.15;101204.66;5097944;28;19927;-48
2023/07/19 08:14:14;;;;;;;;;;;;;;;33.77;41.67;101199.50;5094976;28;19916;-53
2023/07/19 08:16:40;;;;;;;;;;;;;;;34.20;41.50;101196.47;5094971;28;19916;-55
2023/07/19 08:19:05;;;;;;;;;;;;;;;34.53;40.59;101196.31;5090700;28;19923;-50
2023/07/19 08:21:31;;;;;;;;;;;;;;;34.66;41.10;101194.31;5091002;28;19917;-49
2023/07/19 08:23:56;;;;;;;;;;;;;;;34.08;41.89;101187.00;5088485;28;19920;-49
2023/07/19 08:26:22;;;;;;;;;;;;;;;34.43;41.54;101186.47;5100455;28;19916;-50
2023/07/19 08:28:47;;;;;;;;;;;;;;;34.08;42.21;101181.47;5100307;28;20383;-49
2023/07/19 08:31:14;;;;;;;;;;;;;;;34.09;42.68;101166.44;5076445;28;19916;-52
2023/07/19 08:33:40;;;;;;;;;;;;;;;35.16;39.62;101185.75;5088373;28;19938;-48
2023/07/19 08:36:05;;;;;;;;;;;;;;;34.92;37.27;101190.25;5094253;28;19920;-51
2023/07/19 08:38:30;;;;;;;;;;;;;;;34.49;38.99;101183.47;5089130;28;19974;-50
2023/07/19 08:41:00;;;;;;;;;;;;;;;34.87;39.25;101187.75;5094521;28;19928;-48
2023/07/19 08:43:26;;;;;;;;;;;;;;;34.02;39.21;101188.41;5094753;28;20086;-51
2023/07/19 08:45:53;;;;;;;;;;;;;;;33.83;39.37;101184.22;5089466;28;19912;-51
2023/07/19 08:48:18;;;;;;;;;;;;;;;34.69;37.69;101190.00;5097371;28;19931;-49
2023/07/19 08:50:45;;;;;;;;;;;;;;;34.58;36.20;101190.50;5089252;28;19927;-52
2023/07/19 08:53:11;;;;;;;;;;;;;;;33.59;37.85;101180.28;5088915;28;19939;-55
2023/07/19 08:55:36;;;;;;;;;;;;;;;33.60;39.21;101181.91;5090429;28;20061;-51
2023/07/19 08:58:02;;;;;;;;;;;;;;;33.75;39.48;101185.16;5095168;28;19955;-54
2023/07/19 09:00:30;;;;;;;;;;;;;;;34.35;38.86;101187.41;5104656;28;19927;-55
2023/07/19 09:02:56;;;;;;;;;;;;;;;34.33;38.86;101189.72;5088474;28;19927;-53
2023/07/19 09:05:21;;;;;;;;;;;;;;;34.48;38.18;101193.75;5085613;28;19917;-51
2023/07/19 09:07:50;;;;;;;;;;;;;;;35.74;36.71;101190.00;5107430;28;19942;-52
2023/07/19 09:10:16;;;;;;;;;;;;;;;35.28;37.78;101180.09;5095769;28;19955;-51
2023/07/19 09:12:43;;;;;;;;;;;;;;;34.63;38.29;101189.47;5091813;28;19916;-51
2023/07/19 09:15:09;;;;;;;;;;;;;;;36.27;36.09;101188.84;5091466;28;19948;-53
2023/07/19 09:17:37;;;;;;;;;;;;;;;35.83;36.17;101192.59;5099741;28;19916;-52
2023/07/19 09:20:04;;;;;;;;;;;;;;;35.90;36.36;101181.63;5104684;28;19916;-55
2023/07/19 09:22:29;;;;;;;;;;;;;;;35.33;36.87;101186.59;5084919;28;19916;-50
2023/07/19 09:25:01;;;;;;;;;;;;;;;35.38;36.73;101183.53;5097298;28;19938;-52
2023/07/19 09:27:26;;;;;;;;;;;;;;;35.71;36.91;101182.38;5097696;28;19920;-53
2023/07/19 09:29:52;;;;;;;;;;;;;;;36.40;36.66;101186.72;5101331;28;19997;-51
2023/07/19 09:32:17;;;;;;;;;;;;;;;35.18;37.73;101191.75;5107826;28;19917;-50
2023/07/19 09:34:43;;;;;;;;;;;;;;;35.30;37.34;101183.34;5097535;28;19981;-51
2023/07/19 09:37:10;;;;;;;;;;;;;;;36.35;36.41;101189.81;5098300;28;19922;-51
2023/07/19 09:39:36;;;;;;;;;;;;;;;36.37;35.98;101185.47;5096723;28;19917;-52
2023/07/19 09:42:03;;;;;;;;;;;;;;;38.43;33.98;101190.19;5104286;28;19979;-56
2023/07/19 09:44:28;;;;;;;;;;;;;;;36.64;36.33;101191.22;5097280;28;19977;-54
2023/07/19 09:46:54;;;;;;;;;;;;;;;37.06;36.16;101186.06;5104480;28;19920;-48
2023/07/19 09:49:19;;;;;;;;;;;;;;;37.49;35.21;101186.84;5100676;28;19920;-53
2023/07/19 09:51:46;;;;;;;;;;;;;;;37.97;34.62;101191.16;5097251;28;19921;-52
2023/07/19 09:54:12;;;;;;;;;;;;;;;37.79;34.27;101193.69;5097058;28;19917;-53
2023/07/19 09:56:40;;;;;;;;;;;;;;;38.79;33.77;101184.25;5089019;28;19917;-55
2023/07/19 09:59:11;;;;;;;;;;;;;;;40.39;31.50;101186.28;5093693;28;19927;-54
2023/07/19 10:01:36;;;;;;;;;;;;;;;40.69;30.66;101196.38;5087000;28;19927;-52
2023/07/19 10:04:19;;;;;;;;;;;;;;;40.21;30.64;101194.59;5096767;28;19917;-56
2023/07/19 10:06:45;;;;;;;;;;;;;;;38.51;32.99;101186.31;5097145;28;19943;-55
2023/07/19 10:09:31;;;;;;;;;;;;;;;39.21;32.31;101187.88;5096021;28;19988;-51
2023/07/19 10:12:00;;;;;;;;;;;;;;;39.23;32.56;101197.50;5096287;28;19921;-52
2023/07/19 10:14:27;;;;;;;;;;;;;;;37.81;34.48;101183.72;5083661;28;19962;-51
2023/07/19 10:16:58;;;;;;;;;;;;;;;38.85;33.18;101191.88;5100068;28;19916;-47
2023/07/19 10:19:24;;;;;;;;;;;;;;;37.39;34.57;101187.44;5096817;28;19917;-51
2023/07/19 10:22:06;;;;;;;;;;;;;;;39.10;32.57;101179.38;5096897;28;19938;-53
2023/07/19 10:24:33;;;;;;;;;;;;;;;40.35;31.96;101179.88;5096740;28;19927;-53
2023/07/19 10:27:05;;;;;;;;;;;;;;;38.56;32.91;101182.41;5096720;28;19917;-53
2023/07/19 10:29:41;;;;;;;;;;;;;;;39.24;32.30;101187.91;5096658;28;19989;-56
2023/07/19 10:32:07;;;;;;;;;;;;;;;38.76;32.56;101185.00;5096286;28;19927;-53
2023/07/19 10:34:32;;;;;;;;;;;;;;;39.12;32.39;101182.59;5096677;28;19991;-52
2023/07/19 10:37:02;;;;;;;;;;;;;;;39.26;32.46;101191.13;5098753;28;19916;-50
2023/07/19 10:39:27;;;;;;;;;;;;;;;39.06;32.60;101184.94;5102573;28;19924;-49
2023/07/19 10:41:53;;;;;;;;;;;;;;;39.49;32.35;101175.34;5095864;28;19924;-51
2023/07/19 10:44:20;;;;;;;;;;;;;;;39.77;31.40;101187.91;5095202;28;19916;-51
2023/07/19 10:46:46;;;;;;;;;;;;;;;39.77;32.02;101182.31;5095412;28;19952;-50
2023/07/19 10:49:12;;;;;;;;;;;;;;;40.60;31.13;101188.38;5090144;28;19928;-54
2023/07/19 10:51:37;;;;;;;;;;;;;;;40.80;30.69;101182.44;5088356;28;19916;-50
2023/07/19 10:54:03;;;;;;;;;;;;;;;40.94;30.09;101178.84;5095673;28;19925;-54
2023/07/19 10:56:28;;;;;;;;;;;;;;;39.86;31.49;101178.00;5095757;28;19923;-50
2023/07/19 10:58:57;;;;;;;;;;;;;;;38.37;31.81;101169.34;5100115;28;19917;-50
2023/07/19 11:01:22;;;;;;;;;;;;;;;38.43;31.53;101173.44;5095325;28;19916;-54
2023/07/19 11:03:48;;;;;;;;;;;;;;;38.96;30.92;101178.03;5076602;28;19916;-52
2023/07/19 11:06:13;;;;;;;;;;;;;;;39.09;31.25;101178.56;5095368;28;19924;-54
2023/07/19 11:08:39;;;;;;;;;;;;;;;41.71;29.11;101194.53;5078419;28;20035;-54
2023/07/19 11:11:06;;;;;;;;;;;;;;;40.77;30.17;101188.84;5078252;28;19928;-51
2023/07/19 11:13:31;;;;;;;;;;;;;;;40.77;30.14;101186.84;5096748;28;19979;-53
2023/07/19 11:15:58;;;;;;;;;;;;;;;40.70;30.35;101183.97;5097469;28;19943;-50
2023/07/19 11:18:27;;;;;;;;;;;;;;;40.88;30.04;101195.28;5095037;28;19917;-54
2023/07/19 11:20:54;;;;;;;;;;;;;;;40.71;30.69;101196.78;5093647;28;19916;-53
2023/07/19 11:23:19;;;;;;;;;;;;;;;39.06;32.71;101178.56;5097684;28;19920;-55
2023/07/19 11:25:47;;;;;;;;;;;;;;;40.56;30.43;101193.16;5094652;28;21298;-53
2023/07/19 11:28:13;;;;;;;;;;;;;;;39.84;31.52;101191.59;5094515;28;19928;-52
2023/07/19 11:30:39;;;;;;;;;;;;;;;40.10;30.95;101198.13;5101568;28;19912;-55
2023/07/19 11:33:06;;;;;;;;;;;;;;;39.15;31.34;101179.03;5094257;28;19921;-52
2023/07/19 11:35:32;;;;;;;;;;;;;;;39.15;31.50;101185.44;5095272;28;19943;-52
2023/07/19 11:37:57;;;;;;;;;;;;;;;39.19;31.62;101184.66;5095211;28;19944;-54
2023/07/19 11:40:23;;;;;;;;;;;;;;;38.59;32.50;101192.81;5099688;28;19966;-55
2023/07/19 11:42:52;;;;;;;;;;;;;;;38.84;32.78;101198.66;5094746;28;19917;-54
2023/07/19 11:45:19;;;;;;;;;;;;;;;39.70;32.30;101191.50;5099530;28;19917;-49
2023/07/19 11:47:46;;;;;;;;;;;;;;;41.59;29.73;101200.53;5094485;28;19951;-52
2023/07/19 11:50:12;;;;;;;;;;;;;;;40.29;31.66;101201.84;5095920;28;19951;-54
2023/07/19 11:52:44;;;;;;;;;;;;;;;40.57;30.15;101200.34;5101751;28;19996;-55
2023/07/19 11:55:11;;;;;;;;;;;;;;;40.60;29.26;101201.59;5094773;28;19923;-51
2023/07/19 11:57:37;;;;;;;;;;;;;;;39.49;30.79;101204.13;5095132;28;19920;-53
2023/07/19 12:00:03;;;;;;;;;;;;;;;39.35;31.94;101206.75;5098909;28;19924;-56
2023/07/19 12:02:30;;;;;;;;;;;;;;;39.54;31.48;101198.16;5096717;28;20306;-51
2023/07/19 12:04:55;;;;;;;;;;;;;;;39.83;31.25;101200.41;5099945;28;19917;-54
2023/07/19 12:07:20;;;;;;;;;;;;;;;39.89;32.55;101198.00;5094806;28;19920;-52
2023/07/19 12:09:46;;;;;;;;;;;;;;;37.98;37.83;101198.34;5094641;28;19931;-54
2023/07/19 12:12:11;;;;;;;;;;;;;;;37.57;39.07;101202.50;5094502;28;19927;-54
2023/07/19 12:14:37;;;;;;;;;;;;;;;37.75;43.19;101206.78;5094909;28;19924;-51
2023/07/19 12:17:05;;;;;;;;;;;;;;;36.93;44.19;101202.94;5094510;28;19916;-55
2023/07/19 12:19:30;;;;;;;;;;;;;;;36.28;46.04;101212.72;5095241;28;19913;-50
2023/07/19 12:21:55;;;;;;;;;;;;;;;36.48;45.87;101210.75;5098941;28;19924;-49
2023/07/19 12:24:22;;;;;;;;;;;;;;;37.45;42.84;101199.88;5094353;28;19920;-51
2023/07/19 12:26:47;;;;;;;;;;;;;;;37.99;43.19;101208.34;5094574;28;20003;-52
2023/07/19 12:29:13;;;;;;;;;;;;;;;38.18;41.29;101203.81;5094132;28;19924;-51